createdAt,value
2019-03-09T00:00:17.650Z,9.20
2019-03-09T00:02:46.048Z,9.23
2019-03-09T00:05:14.477Z,9.40
2019-03-09T00:07:42.877Z,10.20
2019-03-09T00:10:11.319Z,9.57
2019-03-09T00:12:39.701Z,9.00
2019-03-09T00:15:08.697Z,10.17
2019-03-09T00:17:37.266Z,9.40
2019-03-09T00:20:07.740Z,9.53
2019-03-09T00:22:36.208Z,9.07
2019-03-09T00:25:07.032Z,9.30
2019-03-09T00:27:37.067Z,9.33
2019-03-09T00:30:15.390Z,9.07
2019-03-09T00:32:43.785Z,9.20
2019-03-09T00:35:12.180Z,9.27
2019-03-09T00:37:40.715Z,8.77
2019-03-09T00:40:11.164Z,8.37
2019-03-09T00:42:39.583Z,8.80
2019-03-09T00:45:08.588Z,8.83
2019-03-09T00:47:37.052Z,8.50
2019-03-09T00:50:08.187Z,8.37
2019-03-09T00:52:36.622Z,7.97
2019-03-09T00:55:08.137Z,8.73
2019-03-09T00:57:36.515Z,8.53
2019-03-09T01:00:07.802Z,8.27
2019-03-09T01:02:36.197Z,8.03
2019-03-09T01:05:05.622Z,8.17
2019-03-09T01:07:34.087Z,7.80
2019-03-09T01:10:02.515Z,7.50
2019-03-09T01:12:30.972Z,7.43
2019-03-09T01:14:59.372Z,7.50
2019-03-09T01:17:27.761Z,7.97
2019-03-09T01:19:56.178Z,7.60
2019-03-09T01:22:24.548Z,7.50
2019-03-09T01:24:52.926Z,6.87
2019-03-09T01:27:21.354Z,7.37
2019-03-09T01:29:49.814Z,6.77
2019-03-09T01:32:18.201Z,7.20
2019-03-09T01:34:46.610Z,7.03
2019-03-09T01:37:14.999Z,7.20
2019-03-09T01:39:43.387Z,7.50
2019-03-09T01:42:11.784Z,7.17
2019-03-09T01:44:40.170Z,6.70
2019-03-09T01:47:08.554Z,7.00
2019-03-09T01:49:36.974Z,7.27
2019-03-09T01:52:05.365Z,6.97
2019-03-09T01:54:33.927Z,6.27
2019-03-09T01:57:02.315Z,6.97
2019-03-09T01:59:30.768Z,6.77
2019-03-09T02:01:59.233Z,6.93
2019-03-09T02:04:27.620Z,6.37
2019-03-09T02:06:56.047Z,6.07
2019-03-09T02:09:24.606Z,6.57
2019-03-09T02:11:53.030Z,6.70
2019-03-09T02:14:21.418Z,6.80
2019-03-09T02:16:49.911Z,6.20
2019-03-09T02:19:18.365Z,6.40
2019-03-09T02:21:46.783Z,6.93
2019-03-09T02:24:15.169Z,6.80
2019-03-09T02:26:43.582Z,6.77
2019-03-09T02:29:11.973Z,6.37
2019-03-09T02:31:40.466Z,6.53
2019-03-09T02:34:08.928Z,6.27
2019-03-09T02:36:37.341Z,6.30
2019-03-09T02:39:07.921Z,6.50
2019-03-09T02:41:36.346Z,6.43
2019-03-09T02:44:04.746Z,6.33
2019-03-09T02:46:33.160Z,6.40
2019-03-09T02:49:01.602Z,6.60
2019-03-09T02:51:30.059Z,6.40
2019-03-09T02:53:58.498Z,6.20
2019-03-09T02:56:27.045Z,6.30
2019-03-09T02:58:55.471Z,6.00
2019-03-09T03:01:31.374Z,6.07
2019-03-09T03:03:59.765Z,5.70
2019-03-09T03:06:28.162Z,6.07
2019-03-09T03:08:56.638Z,6.80
2019-03-09T03:11:25.040Z,6.00
2019-03-09T03:13:53.419Z,6.30
2019-03-09T03:16:21.802Z,5.50
2019-03-09T03:18:50.227Z,6.00
2019-03-09T03:21:18.609Z,6.43
2019-03-09T03:23:47.035Z,5.73
2019-03-09T03:26:15.427Z,5.50
2019-03-09T03:28:43.852Z,5.97
2019-03-09T03:31:12.237Z,5.80
2019-03-09T03:33:40.705Z,5.30
2019-03-09T03:36:09.338Z,5.97
2019-03-09T03:38:37.795Z,5.40
2019-03-09T03:41:06.165Z,5.60
2019-03-09T03:43:34.620Z,5.40
2019-03-09T03:46:03.009Z,6.13
2019-03-09T03:48:31.475Z,5.67
2019-03-09T03:50:59.861Z,5.40
2019-03-09T03:53:28.259Z,5.90
2019-03-09T03:55:56.641Z,5.23
2019-03-09T03:58:25.035Z,5.20
2019-03-09T04:00:53.427Z,5.40
2019-03-09T04:03:21.816Z,6.00
2019-03-09T04:05:50.203Z,5.40
2019-03-09T04:08:18.591Z,5.47
2019-03-09T04:10:46.987Z,5.40
2019-03-09T04:13:15.384Z,5.90
2019-03-09T04:15:43.844Z,5.17
2019-03-09T04:18:12.224Z,5.93
2019-03-09T04:20:40.661Z,5.33
2019-03-09T04:23:09.048Z,5.50
2019-03-09T04:25:37.446Z,5.07
2019-03-09T04:28:05.837Z,5.60
2019-03-09T04:30:34.226Z,4.97
2019-03-09T04:33:02.630Z,5.30
2019-03-09T04:35:31.023Z,5.70
2019-03-09T04:37:59.409Z,5.07
2019-03-09T04:40:27.800Z,5.30
2019-03-09T04:42:56.213Z,5.30
2019-03-09T04:45:24.647Z,5.40
2019-03-09T04:47:53.077Z,4.90
2019-03-09T04:50:21.461Z,5.20
2019-03-09T04:52:49.905Z,5.23
2019-03-09T04:55:18.292Z,4.80
2019-03-09T04:57:46.743Z,4.90
2019-03-09T05:00:15.940Z,5.03
2019-03-09T05:02:44.353Z,5.10
2019-03-09T05:05:12.982Z,4.93
2019-03-09T05:07:52.904Z,4.60
2019-03-09T05:10:52.078Z,5.20
2019-03-09T05:13:26.801Z,5.07
2019-03-09T05:15:55.194Z,4.90
2019-03-09T05:18:24.094Z,4.90
2019-03-09T05:20:52.544Z,5.27
2019-03-09T05:23:21.004Z,4.70
2019-03-09T05:25:49.389Z,5.33
2019-03-09T05:28:17.962Z,4.50
2019-03-09T05:30:47.115Z,5.03
2019-03-09T05:33:15.521Z,4.53
2019-03-09T05:35:43.903Z,4.77
2019-03-09T05:38:12.333Z,5.10
2019-03-09T05:40:40.718Z,4.97
2019-03-09T05:43:09.151Z,4.67
2019-03-09T05:45:37.541Z,4.47
2019-03-09T05:48:05.955Z,4.90
2019-03-09T05:50:34.352Z,4.63
2019-03-09T05:53:11.254Z,4.63
2019-03-09T05:55:39.642Z,4.80
2019-03-09T05:58:08.072Z,4.50
2019-03-09T06:00:37.653Z,4.60
2019-03-09T06:03:06.071Z,4.57
2019-03-09T06:05:37.067Z,5.10
2019-03-09T06:08:06.135Z,4.70
2019-03-09T06:10:34.567Z,4.53
2019-03-09T06:13:02.934Z,4.10
2019-03-09T06:15:31.334Z,4.73
2019-03-09T06:17:59.707Z,4.97
2019-03-09T06:20:28.099Z,4.60
2019-03-09T06:22:56.542Z,4.50
2019-03-09T06:25:24.934Z,4.30
2019-03-09T06:27:53.329Z,4.60
2019-03-09T06:30:21.722Z,4.97
2019-03-09T06:33:18.771Z,4.67
2019-03-09T06:35:53.278Z,4.43
2019-03-09T06:38:30.737Z,4.47
2019-03-09T06:41:02.852Z,4.63
2019-03-09T06:43:29.247Z,4.60
2019-03-09T06:45:57.638Z,4.60
2019-03-09T06:48:26.036Z,4.90
2019-03-09T06:50:54.430Z,4.37
2019-03-09T06:53:22.854Z,4.30
2019-03-09T06:55:51.218Z,4.40
2019-03-09T06:58:19.603Z,4.23
2019-03-09T07:00:48.142Z,4.50
2019-03-09T07:03:16.577Z,4.33
2019-03-09T07:05:45.100Z,4.27
2019-03-09T07:08:13.558Z,4.40
2019-03-09T07:10:41.992Z,4.63
2019-03-09T07:13:10.378Z,4.40
2019-03-09T07:15:40.546Z,4.50
2019-03-09T07:18:14.813Z,4.50
2019-03-09T07:20:43.229Z,4.57
2019-03-09T07:23:11.613Z,4.20
2019-03-09T07:25:40.034Z,4.10
2019-03-09T07:28:10.184Z,4.20
2019-03-09T07:30:38.609Z,4.43
2019-03-09T07:33:06.999Z,4.80
2019-03-09T07:35:35.483Z,4.47
2019-03-09T07:38:03.874Z,4.57
2019-03-09T07:40:32.269Z,5.27
2019-03-09T07:43:00.676Z,4.83
2019-03-09T07:45:29.077Z,4.40
2019-03-09T07:47:57.467Z,4.80
2019-03-09T07:50:25.857Z,4.40
2019-03-09T07:52:54.245Z,4.07
2019-03-09T07:55:23.109Z,4.30
2019-03-09T07:57:51.498Z,4.43
2019-03-09T08:00:20.947Z,4.17
2019-03-09T08:02:49.465Z,4.50
2019-03-09T08:05:17.859Z,4.73
2019-03-09T08:07:46.255Z,4.47
2019-03-09T08:10:19.435Z,4.30
2019-03-09T08:12:47.831Z,4.43
2019-03-09T08:15:20.466Z,4.10
2019-03-09T08:17:48.860Z,4.23
2019-03-09T08:20:18.493Z,4.10
2019-03-09T08:22:46.882Z,4.33
2019-03-09T08:25:22.822Z,3.83
2019-03-09T08:27:51.292Z,4.10
2019-03-09T08:30:26.912Z,3.93
2019-03-09T08:32:55.372Z,4.27
2019-03-09T08:35:23.779Z,3.77
2019-03-09T08:37:52.405Z,4.17
2019-03-09T08:40:21.897Z,3.63
2019-03-09T08:42:50.377Z,3.93
2019-03-09T08:45:22.577Z,3.90
2019-03-09T08:47:52.526Z,3.80
2019-03-09T08:50:22.494Z,3.57
2019-03-09T08:52:50.935Z,4.23
2019-03-09T08:55:20.987Z,3.67
2019-03-09T08:57:49.381Z,3.70
2019-03-09T09:00:26.562Z,3.87
2019-03-09T09:02:54.907Z,3.53
2019-03-09T09:05:23.410Z,3.83
2019-03-09T09:07:51.878Z,3.63
2019-03-09T09:10:20.327Z,3.70
2019-03-09T09:12:48.867Z,3.53
2019-03-09T09:15:18.298Z,3.43
2019-03-09T09:17:46.712Z,3.20
2019-03-09T09:20:27.854Z,2.77
2019-03-09T09:22:56.255Z,3.60
2019-03-09T09:25:24.703Z,3.43
2019-03-09T09:27:54.034Z,3.43
2019-03-09T09:30:28.157Z,2.90
2019-03-09T09:32:56.631Z,3.17
2019-03-09T09:35:25.013Z,2.97
2019-03-09T09:37:53.572Z,3.20
2019-03-09T09:40:26.192Z,2.63
2019-03-09T09:42:54.474Z,2.57
2019-03-09T09:45:23.133Z,2.90
2019-03-09T09:47:51.533Z,2.93
2019-03-09T09:50:19.986Z,2.23
2019-03-09T09:52:48.375Z,2.70
2019-03-09T09:55:18.959Z,2.20
2019-03-09T09:57:47.474Z,2.30
2019-03-09T10:00:17.802Z,2.57
2019-03-09T10:02:46.202Z,2.20
2019-03-09T10:05:14.591Z,2.43
2019-03-09T10:07:42.988Z,2.77
2019-03-09T10:10:16.017Z,2.50
2019-03-09T10:12:44.417Z,2.00
2019-03-09T10:15:24.447Z,2.30
2019-03-09T10:17:52.820Z,2.73
2019-03-09T10:20:21.212Z,2.30
2019-03-09T10:22:49.652Z,2.10
2019-03-09T10:25:18.041Z,2.40
2019-03-09T10:27:46.436Z,3.13
2019-03-09T10:30:20.572Z,8.40
2019-03-09T10:32:49.037Z,15.50
2019-03-09T10:35:17.449Z,20.10
2019-03-09T10:37:46.067Z,20.07
2019-03-09T10:40:15.609Z,22.13
2019-03-09T10:42:44.117Z,21.80
2019-03-09T10:45:23.019Z,19.57
2019-03-09T10:47:51.727Z,18.97
2019-03-09T10:50:20.589Z,18.30
2019-03-09T10:52:48.990Z,17.47
2019-03-09T10:55:28.082Z,16.57
2019-03-09T10:57:56.476Z,16.37
2019-03-09T11:00:36.786Z,17.10
2019-03-09T11:03:05.245Z,15.97
2019-03-09T11:05:33.692Z,15.90
2019-03-09T11:08:02.107Z,15.70
2019-03-09T11:10:30.508Z,13.13
2019-03-09T11:12:59.168Z,14.00
2019-03-09T11:15:27.572Z,11.80
2019-03-09T11:17:55.990Z,14.63
2019-03-09T11:20:24.392Z,13.37
2019-03-09T11:22:52.797Z,12.30
2019-03-09T11:25:21.185Z,8.93
2019-03-09T11:27:49.578Z,11.43
2019-03-09T11:30:20.419Z,11.17
2019-03-09T11:32:48.819Z,11.70
2019-03-09T11:35:17.214Z,8.30
2019-03-09T11:37:45.718Z,11.10
2019-03-09T11:40:14.247Z,9.77
2019-03-09T11:42:42.638Z,8.60
2019-03-09T11:45:16.226Z,9.80
2019-03-09T11:47:44.629Z,8.97
2019-03-09T11:50:15.163Z,9.10
2019-03-09T11:52:43.570Z,9.57
2019-03-09T11:55:14.350Z,9.00
2019-03-09T11:57:42.782Z,8.53
2019-03-09T12:00:15.762Z,8.50
2019-03-09T12:02:44.159Z,7.23
2019-03-09T12:05:12.575Z,7.30
2019-03-09T12:07:41.049Z,7.47
2019-03-09T12:10:10.877Z,6.80
2019-03-09T12:12:39.275Z,7.00
2019-03-09T12:15:14.910Z,6.70
2019-03-09T12:17:43.309Z,6.17
2019-03-09T12:20:13.019Z,6.27
2019-03-09T12:22:41.422Z,6.00
2019-03-09T12:25:11.995Z,5.90
2019-03-09T12:27:40.425Z,5.67
2019-03-09T12:30:11.568Z,6.20
2019-03-09T12:32:40.048Z,5.50
2019-03-09T12:35:09.078Z,4.97
2019-03-09T12:37:37.350Z,5.50
2019-03-09T12:40:11.269Z,5.63
2019-03-09T12:42:39.813Z,5.10
2019-03-09T12:45:10.234Z,5.07
2019-03-09T12:47:38.843Z,5.20
2019-03-09T12:50:10.729Z,5.07
2019-03-09T12:52:39.205Z,5.60
2019-03-09T12:55:07.627Z,4.17
2019-03-09T12:57:36.056Z,4.80
2019-03-09T13:00:05.809Z,4.70
2019-03-09T13:02:34.199Z,4.13
2019-03-09T13:05:02.590Z,4.63
2019-03-09T13:07:31.022Z,4.20
2019-03-09T13:09:59.404Z,4.20
2019-03-09T13:12:27.929Z,3.60
2019-03-09T13:14:56.314Z,4.33
2019-03-09T13:17:24.770Z,3.73
2019-03-09T13:19:53.159Z,3.90
2019-03-09T13:22:21.585Z,3.63
2019-03-09T13:24:49.973Z,3.23
2019-03-09T13:27:18.366Z,3.90
2019-03-09T13:29:48.040Z,3.47
2019-03-09T13:32:16.439Z,3.73
2019-03-09T13:34:44.843Z,2.97
2019-03-09T13:37:13.236Z,3.33
2019-03-09T13:39:41.649Z,3.13
2019-03-09T13:42:10.038Z,3.37
2019-03-09T13:44:38.430Z,3.73
2019-03-09T13:47:06.931Z,3.17
2019-03-09T13:49:35.326Z,3.03
2019-03-09T13:52:03.711Z,3.37
2019-03-09T13:54:32.104Z,3.50
2019-03-09T13:57:00.499Z,3.60
2019-03-09T13:59:28.895Z,3.30
2019-03-09T14:01:57.286Z,3.80
2019-03-09T14:04:25.747Z,3.77
2019-03-09T14:06:54.137Z,4.17
2019-03-09T14:09:22.530Z,3.93
2019-03-09T14:11:50.920Z,4.97
2019-03-09T14:14:19.310Z,4.87
2019-03-09T14:16:47.721Z,5.97
2019-03-09T14:19:16.113Z,7.63
2019-03-09T14:21:44.506Z,6.97
2019-03-09T14:24:12.907Z,7.30
2019-03-09T14:26:41.369Z,8.07
2019-03-09T14:29:09.818Z,7.73
2019-03-09T14:31:38.214Z,8.70
2019-03-09T14:34:06.623Z,8.70
2019-03-09T14:36:35.020Z,8.33
2019-03-09T14:39:04.868Z,7.93
2019-03-09T14:41:33.255Z,9.23
2019-03-09T14:44:01.657Z,9.13
2019-03-09T14:46:30.121Z,9.10
2019-03-09T14:48:58.591Z,9.47
2019-03-09T14:51:27.002Z,9.23
2019-03-09T14:53:55.396Z,8.90
2019-03-09T14:56:23.887Z,8.67
2019-03-09T14:58:52.283Z,8.93
2019-03-09T15:01:20.671Z,8.90
2019-03-09T15:03:49.103Z,9.00
2019-03-09T15:06:21.993Z,8.77
2019-03-09T15:08:51.660Z,8.93
2019-03-09T15:11:20.048Z,8.90
2019-03-09T15:13:48.483Z,8.70
2019-03-09T15:16:16.876Z,8.13
2019-03-09T15:18:45.295Z,8.33
2019-03-09T15:21:13.694Z,8.43
2019-03-09T15:23:42.225Z,8.37
2019-03-09T15:26:10.659Z,8.43
2019-03-09T15:28:39.056Z,8.13
2019-03-09T15:31:07.459Z,8.47
2019-03-09T15:33:35.950Z,7.80
2019-03-09T15:36:04.436Z,8.20
2019-03-09T15:38:32.851Z,8.13
2019-03-09T15:41:01.361Z,7.57
2019-03-09T15:43:29.816Z,7.60
2019-03-09T15:45:58.212Z,8.23
2019-03-09T15:48:26.650Z,7.47
2019-03-09T15:50:55.022Z,6.77
2019-03-09T15:53:25.021Z,7.30
2019-03-09T15:55:53.411Z,7.63
2019-03-09T15:58:21.850Z,7.10
2019-03-09T16:00:50.320Z,7.73
2019-03-09T16:03:18.709Z,7.43
2019-03-09T16:05:47.099Z,7.00
2019-03-09T16:08:16.988Z,6.40
2019-03-09T16:10:45.415Z,7.47
2019-03-09T16:13:13.877Z,7.07
2019-03-09T16:15:42.274Z,7.23
2019-03-09T16:18:10.732Z,7.27
2019-03-09T16:20:39.132Z,6.63
2019-03-09T16:23:07.896Z,6.73
2019-03-09T16:25:36.317Z,7.13
2019-03-09T16:28:04.760Z,7.10
2019-03-09T16:30:33.192Z,7.53
2019-03-09T16:33:01.579Z,7.30
2019-03-09T16:35:30.034Z,6.63
2019-03-09T16:37:58.445Z,7.30
2019-03-09T16:40:26.886Z,7.70
2019-03-09T16:42:55.281Z,7.77
2019-03-09T16:45:23.719Z,7.13
2019-03-09T16:47:52.116Z,7.30
2019-03-09T16:50:20.526Z,7.07
2019-03-09T16:52:48.950Z,6.43
2019-03-09T16:55:17.467Z,6.97
2019-03-09T16:57:45.915Z,8.00
2019-03-09T17:00:19.167Z,6.97
2019-03-09T17:02:47.550Z,6.57
2019-03-09T17:05:15.986Z,6.67
2019-03-09T17:07:44.386Z,7.23
2019-03-09T17:10:14.235Z,6.43
2019-03-09T17:12:42.627Z,6.97
2019-03-09T17:15:17.257Z,6.30
2019-03-09T17:17:45.654Z,7.03
2019-03-09T17:20:17.942Z,6.93
2019-03-09T17:22:46.334Z,6.67
2019-03-09T17:25:15.364Z,6.60
2019-03-09T17:27:43.747Z,6.30
2019-03-09T17:30:19.978Z,6.77
2019-03-09T17:32:48.438Z,6.97
2019-03-09T17:35:16.841Z,7.07
2019-03-09T17:37:45.242Z,7.00
2019-03-09T17:40:15.158Z,6.83
2019-03-09T17:42:43.561Z,6.80
2019-03-09T17:45:14.751Z,6.63
2019-03-09T17:47:43.178Z,7.23
2019-03-09T17:50:13.292Z,6.90
2019-03-09T17:52:41.671Z,6.57
2019-03-09T17:55:11.144Z,6.90
2019-03-09T17:57:39.541Z,6.67
2019-03-09T18:00:26.658Z,6.50
2019-03-09T18:02:55.147Z,6.97
2019-03-09T18:05:23.575Z,6.73
2019-03-09T18:07:51.981Z,6.50
2019-03-09T18:10:40.198Z,7.27
2019-03-09T18:13:08.584Z,6.43
2019-03-09T18:15:37.044Z,6.90
2019-03-09T18:18:05.440Z,5.80
2019-03-09T18:20:34.016Z,6.53
2019-03-09T18:23:02.412Z,6.50
2019-03-09T18:25:30.873Z,6.53
2019-03-09T18:27:59.321Z,6.53
2019-03-09T18:30:27.839Z,6.60
2019-03-09T18:32:56.220Z,6.20
2019-03-09T18:35:24.634Z,6.93
2019-03-09T18:37:53.029Z,6.63
2019-03-09T18:40:21.438Z,6.13
2019-03-09T18:42:49.832Z,6.60
2019-03-09T18:45:20.923Z,6.40
2019-03-09T18:47:49.307Z,6.47
2019-03-09T18:50:17.702Z,6.67
2019-03-09T18:52:46.089Z,6.87
2019-03-09T18:55:14.548Z,6.60
2019-03-09T18:57:42.956Z,6.60
2019-03-09T19:00:18.502Z,6.30
2019-03-09T19:02:46.888Z,6.50
2019-03-09T19:05:15.304Z,6.63
2019-03-09T19:07:43.907Z,6.60
2019-03-09T19:10:14.544Z,6.03
2019-03-09T19:12:42.938Z,6.27
2019-03-09T19:15:15.123Z,6.50
2019-03-09T19:17:43.517Z,6.30
2019-03-09T19:20:17.103Z,6.47
2019-03-09T19:22:45.483Z,6.20
2019-03-09T19:25:14.540Z,6.33
2019-03-09T19:27:42.931Z,6.60
2019-03-09T19:30:17.390Z,8.30
2019-03-09T19:32:48.247Z,9.73
2019-03-09T19:35:16.685Z,10.97
2019-03-09T19:37:45.094Z,13.97
2019-03-09T19:40:17.873Z,14.63
2019-03-09T19:42:46.304Z,17.40
2019-03-09T19:45:18.114Z,17.33
2019-03-09T19:47:46.512Z,18.73
2019-03-09T19:50:17.207Z,20.00
2019-03-09T19:52:45.601Z,19.63
2019-03-09T19:55:14.081Z,21.07
2019-03-09T19:57:42.485Z,19.97
2019-03-09T20:00:16.906Z,20.83
2019-03-09T20:02:46.416Z,19.90
2019-03-09T20:05:14.860Z,19.93
2019-03-09T20:07:43.251Z,20.37
2019-03-09T20:10:20.032Z,19.37
2019-03-09T20:12:48.429Z,18.83
2019-03-09T20:15:18.960Z,17.30
2019-03-09T20:17:47.365Z,17.03
2019-03-09T20:20:17.807Z,16.67
2019-03-09T20:22:46.215Z,15.00
2019-03-09T20:25:14.617Z,15.30
2019-03-09T20:27:43.014Z,15.33
2019-03-09T20:30:19.535Z,15.13
2019-03-09T20:32:48.487Z,14.70
2019-03-09T20:35:16.911Z,14.20
2019-03-09T20:37:45.302Z,13.93
2019-03-09T20:40:17.936Z,13.93
2019-03-09T20:42:46.337Z,13.17
2019-03-09T20:45:16.884Z,12.47
2019-03-09T20:47:45.280Z,12.30
2019-03-09T20:50:17.696Z,13.00
2019-03-09T20:52:46.101Z,12.30
2019-03-09T20:55:14.504Z,11.40
2019-03-09T20:57:42.913Z,12.03
2019-03-09T21:00:16.323Z,11.03
2019-03-09T21:02:44.743Z,9.87
2019-03-09T21:05:13.150Z,10.37
2019-03-09T21:07:41.567Z,9.43
2019-03-09T21:10:12.755Z,9.63
2019-03-09T21:12:55.290Z,9.87
2019-03-09T21:15:23.680Z,9.10
2019-03-09T21:17:52.072Z,9.07
2019-03-09T21:20:20.491Z,9.03
2019-03-09T21:22:48.896Z,9.20
2019-03-09T21:25:17.290Z,7.77
2019-03-09T21:27:45.673Z,7.90
2019-03-09T21:30:14.546Z,7.83
2019-03-09T21:32:42.948Z,7.90
2019-03-09T21:35:11.347Z,7.40
2019-03-09T21:37:39.743Z,7.20
2019-03-09T21:40:08.304Z,7.10
2019-03-09T21:42:36.706Z,7.33
2019-03-09T21:45:07.867Z,7.53
2019-03-09T21:47:36.251Z,7.47
2019-03-09T21:50:07.748Z,7.20
2019-03-09T21:52:36.138Z,6.90
2019-03-09T21:55:06.174Z,6.73
2019-03-09T21:57:34.569Z,6.10
2019-03-09T22:00:03.152Z,6.00
2019-03-09T22:02:31.585Z,6.60
2019-03-09T22:05:00.317Z,6.60
2019-03-09T22:07:29.986Z,6.73
2019-03-09T22:09:58.378Z,6.60
2019-03-09T22:12:26.826Z,7.40
2019-03-09T22:14:55.210Z,7.50
2019-03-09T22:17:25.280Z,8.70
2019-03-09T22:19:53.675Z,7.70
2019-03-09T22:22:22.101Z,8.30
2019-03-09T22:24:50.765Z,7.83
2019-03-09T22:27:24.707Z,8.63
2019-03-09T22:29:53.310Z,9.33
2019-03-09T22:32:21.744Z,8.77
2019-03-09T22:34:50.124Z,8.73
2019-03-09T22:37:18.542Z,8.77
2019-03-09T22:39:46.935Z,9.30
2019-03-09T22:42:15.355Z,9.63
2019-03-09T22:44:43.770Z,9.57
2019-03-09T22:47:12.333Z,9.30
2019-03-09T22:49:40.766Z,9.23
2019-03-09T22:52:08.329Z,9.73
2019-03-09T22:54:36.726Z,9.47
2019-03-09T22:57:06.567Z,9.57
2019-03-09T22:59:36.674Z,9.10
2019-03-09T23:02:05.724Z,9.90
2019-03-09T23:04:34.112Z,9.67
2019-03-09T23:07:02.511Z,9.90
2019-03-09T23:09:30.929Z,8.13
2019-03-09T23:11:59.328Z,7.93
2019-03-09T23:14:27.719Z,7.50
2019-03-09T23:16:56.133Z,7.53
2019-03-09T23:19:24.526Z,7.83
2019-03-09T23:21:52.924Z,6.80
2019-03-09T23:24:21.339Z,8.23
2019-03-09T23:26:49.729Z,8.13
2019-03-09T23:29:18.193Z,8.13
2019-03-09T23:31:46.629Z,8.00
2019-03-09T23:34:15.018Z,8.00
2019-03-09T23:36:43.421Z,7.90
2019-03-09T23:39:11.809Z,7.57
2019-03-09T23:41:40.216Z,7.43
2019-03-09T23:44:08.607Z,8.20
2019-03-09T23:46:37.042Z,7.47
2019-03-09T23:49:05.497Z,7.53
2019-03-09T23:51:33.971Z,7.77
2019-03-09T23:54:02.371Z,7.60
2019-03-09T23:56:30.751Z,7.50
2019-03-09T23:58:59.152Z,8.23
